sensor_id;sensor_type;location;lat;lon;timestamp;temperature;humidity
46732;DHT22;32477;51.474;5.696;2022-10-16T00:00:32;13.10;99.90
46732;DHT22;32477;51.474;5.696;2022-10-16T00:02:58;13.10;99.90
46732;DHT22;32477;51.474;5.696;2022-10-16T00:05:30;13.10;99.90
46732;DHT22;32477;51.474;5.696;2022-10-16T00:07:55;13.10;99.90
46732;DHT22;32477;51.474;5.696;2022-10-16T00:10:22;13.00;99.90
46732;DHT22;32477;51.474;5.696;2022-10-16T00:12:57;13.00;99.90
46732;DHT22;32477;51.474;5.696;2022-10-16T00:15:23;13.00;99.90
46732;DHT22;32477;51.474;5.696;2022-10-16T00:17:48;13.00;99.90
46732;DHT22;32477;51.474;5.696;2022-10-16T00:20:14;13.00;99.90
46732;DHT22;32477;51.474;5.696;2022-10-16T00:22:45;12.90;99.90
46732;DHT22;32477;51.474;5.696;2022-10-16T00:25:14;13.00;99.90
46732;DHT22;32477;51.474;5.696;2022-10-16T00:27:45;13.00;99.90
46732;DHT22;32477;51.474;5.696;2022-10-16T00:30:14;13.00;99.90
46732;DHT22;32477;51.474;5.696;2022-10-16T00:32:40;12.90;99.90
46732;DHT22;32477;51.474;5.696;2022-10-16T00:35:08;12.90;99.90
46732;DHT22;32477;51.474;5.696;2022-10-16T00:37:34;12.80;99.90
46732;DHT22;32477;51.474;5.696;2022-10-16T00:40:00;12.80;99.90
46732;DHT22;32477;51.474;5.696;2022-10-16T00:42:26;12.80;99.90
46732;DHT22;32477;51.474;5.696;2022-10-16T00:44:57;12.80;99.90
46732;DHT22;32477;51.474;5.696;2022-10-16T00:47:34;12.70;99.90
46732;DHT22;32477;51.474;5.696;2022-10-16T00:50:09;12.70;99.90
46732;DHT22;32477;51.474;5.696;2022-10-16T00:52:45;12.70;99.90
46732;DHT22;32477;51.474;5.696;2022-10-16T00:55:12;12.60;99.90
46732;DHT22;32477;51.474;5.696;2022-10-16T00:57:39;12.60;99.90
46732;DHT22;32477;51.474;5.696;2022-10-16T01:00:07;12.60;99.90
46732;DHT22;32477;51.474;5.696;2022-10-16T01:02:34;12.60;99.90
46732;DHT22;32477;51.474;5.696;2022-10-16T01:05:00;12.50;99.90
46732;DHT22;32477;51.474;5.696;2022-10-16T01:07:45;12.50;99.90
46732;DHT22;32477;51.474;5.696;2022-10-16T01:10:35;12.50;99.90
46732;DHT22;32477;51.474;5.696;2022-10-16T01:13:10;12.50;99.90
46732;DHT22;32477;51.474;5.696;2022-10-16T01:15:47;12.50;99.90
46732;DHT22;32477;51.474;5.696;2022-10-16T01:21:01;12.40;99.90
46732;DHT22;32477;51.474;5.696;2022-10-16T01:23:51;12.40;99.90
46732;DHT22;32477;51.474;5.696;2022-10-16T01:26:31;12.30;99.90
46732;DHT22;32477;51.474;5.696;2022-10-16T01:29:34;12.30;99.90
46732;DHT22;32477;51.474;5.696;2022-10-16T01:34:53;12.30;99.90
46732;DHT22;32477;51.474;5.696;2022-10-16T01:38:29;12.30;99.90
46732;DHT22;32477;51.474;5.696;2022-10-16T01:40:29;12.20;99.90
46732;DHT22;32477;51.474;5.696;2022-10-16T01:43:07;12.10;99.90
46732;DHT22;32477;51.474;5.696;2022-10-16T01:45:34;12.10;99.90
46732;DHT22;32477;51.474;5.696;2022-10-16T01:48:02;12.10;99.90
46732;DHT22;32477;51.474;5.696;2022-10-16T01:50:34;12.10;99.90
46732;DHT22;32477;51.474;5.696;2022-10-16T01:53:02;12.20;99.90
46732;DHT22;32477;51.474;5.696;2022-10-16T01:55:32;12.20;99.90
46732;DHT22;32477;51.474;5.696;2022-10-16T01:58:00;12.20;99.90
46732;DHT22;32477;51.474;5.696;2022-10-16T02:00:29;12.20;99.90
46732;DHT22;32477;51.474;5.696;2022-10-16T02:02:57;12.20;99.90
46732;DHT22;32477;51.474;5.696;2022-10-16T02:05:28;12.30;99.90
46732;DHT22;32477;51.474;5.696;2022-10-16T02:07:56;12.30;99.90
46732;DHT22;32477;51.474;5.696;2022-10-16T02:10:25;12.40;99.90
46732;DHT22;32477;51.474;5.696;2022-10-16T02:13:21;12.40;99.90
46732;DHT22;32477;51.474;5.696;2022-10-16T02:15:51;12.40;99.90
46732;DHT22;32477;51.474;5.696;2022-10-16T02:18:17;12.50;99.90
46732;DHT22;32477;51.474;5.696;2022-10-16T02:21:04;12.50;99.90
46732;DHT22;32477;51.474;5.696;2022-10-16T02:26:16;12.50;99.90
46732;DHT22;32477;51.474;5.696;2022-10-16T02:28:54;12.40;99.90
46732;DHT22;32477;51.474;5.696;2022-10-16T02:31:27;12.40;99.90
46732;DHT22;32477;51.474;5.696;2022-10-16T02:33:56;12.30;99.90
46732;DHT22;32477;51.474;5.696;2022-10-16T02:36:27;12.30;99.90
46732;DHT22;32477;51.474;5.696;2022-10-16T02:38:54;12.30;99.90
46732;DHT22;32477;51.474;5.696;2022-10-16T02:41:21;12.30;99.90
46732;DHT22;32477;51.474;5.696;2022-10-16T02:43:47;12.30;99.90
46732;DHT22;32477;51.474;5.696;2022-10-16T02:46:14;12.20;99.90
46732;DHT22;32477;51.474;5.696;2022-10-16T02:48:39;12.20;99.90
46732;DHT22;32477;51.474;5.696;2022-10-16T02:51:06;12.20;99.90
46732;DHT22;32477;51.474;5.696;2022-10-16T02:53:32;12.20;99.90
46732;DHT22;32477;51.474;5.696;2022-10-16T02:55:58;12.20;99.90
46732;DHT22;32477;51.474;5.696;2022-10-16T02:58:23;12.10;99.90
46732;DHT22;32477;51.474;5.696;2022-10-16T03:00:49;12.10;99.90
46732;DHT22;32477;51.474;5.696;2022-10-16T03:03:17;12.10;99.90
46732;DHT22;32477;51.474;5.696;2022-10-16T03:05:46;12.10;99.90
46732;DHT22;32477;51.474;5.696;2022-10-16T03:08:15;12.10;99.90
46732;DHT22;32477;51.474;5.696;2022-10-16T03:10:41;12.00;99.90
46732;DHT22;32477;51.474;5.696;2022-10-16T03:13:07;12.10;99.90
46732;DHT22;32477;51.474;5.696;2022-10-16T03:15:32;12.10;99.90
46732;DHT22;32477;51.474;5.696;2022-10-16T03:17:58;12.10;99.90
46732;DHT22;32477;51.474;5.696;2022-10-16T03:20:25;12.10;99.90
46732;DHT22;32477;51.474;5.696;2022-10-16T03:22:50;12.10;99.90
46732;DHT22;32477;51.474;5.696;2022-10-16T03:25:16;12.10;99.90
46732;DHT22;32477;51.474;5.696;2022-10-16T03:27:42;12.10;99.90
46732;DHT22;32477;51.474;5.696;2022-10-16T03:30:11;12.20;99.90
46732;DHT22;32477;51.474;5.696;2022-10-16T03:32:37;12.10;99.90
46732;DHT22;32477;51.474;5.696;2022-10-16T03:35:03;12.10;99.90
46732;DHT22;32477;51.474;5.696;2022-10-16T03:37:29;12.20;99.90
46732;DHT22;32477;51.474;5.696;2022-10-16T03:39:57;12.10;99.90
46732;DHT22;32477;51.474;5.696;2022-10-16T03:42:24;12.20;99.90
46732;DHT22;32477;51.474;5.696;2022-10-16T03:44:50;12.20;99.90
46732;DHT22;32477;51.474;5.696;2022-10-16T03:47:16;12.20;99.90
46732;DHT22;32477;51.474;5.696;2022-10-16T03:49:46;12.20;99.90
46732;DHT22;32477;51.474;5.696;2022-10-16T03:52:20;12.30;99.90
46732;DHT22;32477;51.474;5.696;2022-10-16T03:54:46;12.20;99.90
46732;DHT22;32477;51.474;5.696;2022-10-16T03:57:12;12.30;99.90
46732;DHT22;32477;51.474;5.696;2022-10-16T03:59:38;12.20;99.90
46732;DHT22;32477;51.474;5.696;2022-10-16T04:02:03;12.20;99.90
46732;DHT22;32477;51.474;5.696;2022-10-16T04:04:35;12.20;99.90
46732;DHT22;32477;51.474;5.696;2022-10-16T04:07:04;12.30;99.90
46732;DHT22;32477;51.474;5.696;2022-10-16T04:09:36;12.30;99.90
46732;DHT22;32477;51.474;5.696;2022-10-16T04:12:02;12.30;99.90
46732;DHT22;32477;51.474;5.696;2022-10-16T04:14:28;12.30;99.90
46732;DHT22;32477;51.474;5.696;2022-10-16T04:16:57;12.40;99.90
46732;DHT22;32477;51.474;5.696;2022-10-16T04:19:25;12.30;99.90
46732;DHT22;32477;51.474;5.696;2022-10-16T04:21:51;12.40;99.90
46732;DHT22;32477;51.474;5.696;2022-10-16T04:24:17;12.40;99.90
46732;DHT22;32477;51.474;5.696;2022-10-16T04:26:43;12.40;99.90
46732;DHT22;32477;51.474;5.696;2022-10-16T04:29:09;12.50;99.90
46732;DHT22;32477;51.474;5.696;2022-10-16T04:31:35;12.50;99.90
46732;DHT22;32477;51.474;5.696;2022-10-16T04:34:01;12.60;99.90
46732;DHT22;32477;51.474;5.696;2022-10-16T04:36:27;12.60;99.90
46732;DHT22;32477;51.474;5.696;2022-10-16T04:38:53;12.60;99.90
46732;DHT22;32477;51.474;5.696;2022-10-16T04:41:19;12.60;99.90
46732;DHT22;32477;51.474;5.696;2022-10-16T04:43:45;12.70;99.90
46732;DHT22;32477;51.474;5.696;2022-10-16T04:46:14;12.70;99.90
46732;DHT22;32477;51.474;5.696;2022-10-16T04:48:39;12.70;99.90
46732;DHT22;32477;51.474;5.696;2022-10-16T04:51:05;12.70;99.90
46732;DHT22;32477;51.474;5.696;2022-10-16T04:53:31;12.70;99.90
46732;DHT22;32477;51.474;5.696;2022-10-16T04:56:08;12.60;99.90
46732;DHT22;32477;51.474;5.696;2022-10-16T04:58:37;12.60;99.90
46732;DHT22;32477;51.474;5.696;2022-10-16T05:01:03;12.60;99.90
46732;DHT22;32477;51.474;5.696;2022-10-16T05:03:28;12.50;99.90
46732;DHT22;32477;51.474;5.696;2022-10-16T05:05:55;12.60;99.90
46732;DHT22;32477;51.474;5.696;2022-10-16T05:08:21;12.60;99.90
46732;DHT22;32477;51.474;5.696;2022-10-16T05:10:48;12.60;99.90
46732;DHT22;32477;51.474;5.696;2022-10-16T05:13:13;12.50;99.90
46732;DHT22;32477;51.474;5.696;2022-10-16T05:15:51;12.50;99.90
46732;DHT22;32477;51.474;5.696;2022-10-16T05:18:22;12.50;99.90
46732;DHT22;32477;51.474;5.696;2022-10-16T05:20:48;12.50;99.90
46732;DHT22;32477;51.474;5.696;2022-10-16T05:23:14;12.50;99.90
46732;DHT22;32477;51.474;5.696;2022-10-16T05:25:40;12.50;99.90
46732;DHT22;32477;51.474;5.696;2022-10-16T05:28:06;12.40;99.90
46732;DHT22;32477;51.474;5.696;2022-10-16T05:30:32;12.40;99.90
46732;DHT22;32477;51.474;5.696;2022-10-16T05:32:58;12.40;99.90
46732;DHT22;32477;51.474;5.696;2022-10-16T05:35:26;12.30;99.90
46732;DHT22;32477;51.474;5.696;2022-10-16T05:37:52;12.30;99.90
46732;DHT22;32477;51.474;5.696;2022-10-16T05:40:21;12.40;99.90
46732;DHT22;32477;51.474;5.696;2022-10-16T05:42:47;12.40;99.90
46732;DHT22;32477;51.474;5.696;2022-10-16T05:45:13;12.30;99.90
46732;DHT22;32477;51.474;5.696;2022-10-16T05:47:39;12.30;99.90
46732;DHT22;32477;51.474;5.696;2022-10-16T05:50:05;12.30;99.90
46732;DHT22;32477;51.474;5.696;2022-10-16T05:52:31;12.30;99.90
46732;DHT22;32477;51.474;5.696;2022-10-16T05:54:59;12.30;99.90
46732;DHT22;32477;51.474;5.696;2022-10-16T05:57:25;12.30;99.90
46732;DHT22;32477;51.474;5.696;2022-10-16T05:59:51;12.30;99.90
46732;DHT22;32477;51.474;5.696;2022-10-16T06:02:17;12.30;99.90
46732;DHT22;32477;51.474;5.696;2022-10-16T06:04:42;12.30;99.90
46732;DHT22;32477;51.474;5.696;2022-10-16T06:07:08;12.30;99.90
46732;DHT22;32477;51.474;5.696;2022-10-16T06:09:34;12.30;99.90
46732;DHT22;32477;51.474;5.696;2022-10-16T06:12:00;12.30;99.90
46732;DHT22;32477;51.474;5.696;2022-10-16T06:14:25;12.30;99.90
46732;DHT22;32477;51.474;5.696;2022-10-16T06:16:51;12.30;99.90
46732;DHT22;32477;51.474;5.696;2022-10-16T06:19:17;12.30;99.90
46732;DHT22;32477;51.474;5.696;2022-10-16T06:21:43;12.40;99.90
46732;DHT22;32477;51.474;5.696;2022-10-16T06:24:09;12.30;99.90
46732;DHT22;32477;51.474;5.696;2022-10-16T06:26:35;12.40;99.90
46732;DHT22;32477;51.474;5.696;2022-10-16T06:29:01;12.40;99.90
46732;DHT22;32477;51.474;5.696;2022-10-16T06:31:29;12.40;99.90
46732;DHT22;32477;51.474;5.696;2022-10-16T06:33:57;12.40;99.90
46732;DHT22;32477;51.474;5.696;2022-10-16T06:36:24;12.40;99.90
46732;DHT22;32477;51.474;5.696;2022-10-16T06:38:50;12.40;99.90
46732;DHT22;32477;51.474;5.696;2022-10-16T06:41:18;12.40;99.90
46732;DHT22;32477;51.474;5.696;2022-10-16T06:43:46;12.40;99.90
46732;DHT22;32477;51.474;5.696;2022-10-16T06:46:14;12.40;99.90
46732;DHT22;32477;51.474;5.696;2022-10-16T06:48:40;12.40;99.90
46732;DHT22;32477;51.474;5.696;2022-10-16T06:51:13;12.50;99.90
46732;DHT22;32477;51.474;5.696;2022-10-16T06:53:42;12.50;99.90
46732;DHT22;32477;51.474;5.696;2022-10-16T06:56:15;12.50;99.90
46732;DHT22;32477;51.474;5.696;2022-10-16T06:58:41;12.60;99.90
46732;DHT22;32477;51.474;5.696;2022-10-16T07:01:08;12.60;99.90
46732;DHT22;32477;51.474;5.696;2022-10-16T07:03:36;12.70;99.90
46732;DHT22;32477;51.474;5.696;2022-10-16T07:06:03;12.70;99.90
46732;DHT22;32477;51.474;5.696;2022-10-16T07:08:33;12.90;99.90
46732;DHT22;32477;51.474;5.696;2022-10-16T07:11:00;12.90;99.90
46732;DHT22;32477;51.474;5.696;2022-10-16T07:13:26;13.00;99.90
46732;DHT22;32477;51.474;5.696;2022-10-16T07:15:52;13.10;99.90
46732;DHT22;32477;51.474;5.696;2022-10-16T07:18:18;13.10;99.90
46732;DHT22;32477;51.474;5.696;2022-10-16T07:20:43;13.10;99.90
46732;DHT22;32477;51.474;5.696;2022-10-16T07:23:09;13.20;99.90
46732;DHT22;32477;51.474;5.696;2022-10-16T07:25:35;13.20;99.90
46732;DHT22;32477;51.474;5.696;2022-10-16T07:28:00;13.40;99.90
46732;DHT22;32477;51.474;5.696;2022-10-16T07:30:26;13.40;99.90
46732;DHT22;32477;51.474;5.696;2022-10-16T07:32:51;13.50;99.90
46732;DHT22;32477;51.474;5.696;2022-10-16T07:35:17;13.60;99.90
46732;DHT22;32477;51.474;5.696;2022-10-16T07:37:46;13.70;99.90
46732;DHT22;32477;51.474;5.696;2022-10-16T07:40:12;13.80;99.90
46732;DHT22;32477;51.474;5.696;2022-10-16T07:42:38;13.80;99.90
46732;DHT22;32477;51.474;5.696;2022-10-16T07:45:04;14.10;99.90
46732;DHT22;32477;51.474;5.696;2022-10-16T07:47:30;14.80;99.90
46732;DHT22;32477;51.474;5.696;2022-10-16T07:49:55;15.70;99.90
46732;DHT22;32477;51.474;5.696;2022-10-16T07:52:21;16.30;99.90
46732;DHT22;32477;51.474;5.696;2022-10-16T07:54:47;16.80;99.90
46732;DHT22;32477;51.474;5.696;2022-10-16T07:57:12;17.20;99.90
46732;DHT22;32477;51.474;5.696;2022-10-16T07:59:45;17.60;99.90
46732;DHT22;32477;51.474;5.696;2022-10-16T08:02:10;17.80;99.90
46732;DHT22;32477;51.474;5.696;2022-10-16T08:04:36;18.10;99.90
46732;DHT22;32477;51.474;5.696;2022-10-16T08:07:01;18.30;99.90
46732;DHT22;32477;51.474;5.696;2022-10-16T08:09:27;18.50;99.90
46732;DHT22;32477;51.474;5.696;2022-10-16T08:11:52;18.60;99.90
46732;DHT22;32477;51.474;5.696;2022-10-16T08:14:18;18.60;99.90
46732;DHT22;32477;51.474;5.696;2022-10-16T08:16:43;19.10;99.90
46732;DHT22;32477;51.474;5.696;2022-10-16T08:19:09;19.10;99.90
46732;DHT22;32477;51.474;5.696;2022-10-16T08:21:34;19.00;99.90
46732;DHT22;32477;51.474;5.696;2022-10-16T08:24:00;19.10;99.90
46732;DHT22;32477;51.474;5.696;2022-10-16T08:26:27;19.40;99.90
46732;DHT22;32477;51.474;5.696;2022-10-16T08:28:52;19.50;99.90
46732;DHT22;32477;51.474;5.696;2022-10-16T08:31:18;19.00;99.90
46732;DHT22;32477;51.474;5.696;2022-10-16T08:33:45;19.30;99.90
46732;DHT22;32477;51.474;5.696;2022-10-16T08:36:13;19.50;99.90
46732;DHT22;32477;51.474;5.696;2022-10-16T08:38:39;19.80;99.90
46732;DHT22;32477;51.474;5.696;2022-10-16T08:42:25;20.00;99.90
46732;DHT22;32477;51.474;5.696;2022-10-16T08:45:00;20.20;99.90
46732;DHT22;32477;51.474;5.696;2022-10-16T08:48:00;20.40;99.90
46732;DHT22;32477;51.474;5.696;2022-10-16T08:50:32;20.20;99.90
46732;DHT22;32477;51.474;5.696;2022-10-16T08:53:01;20.40;99.90
46732;DHT22;32477;51.474;5.696;2022-10-16T08:55:43;20.10;99.90
46732;DHT22;32477;51.474;5.696;2022-10-16T08:58:20;19.80;99.90
46732;DHT22;32477;51.474;5.696;2022-10-16T09:00:55;19.50;99.90
46732;DHT22;32477;51.474;5.696;2022-10-16T09:20:26;21.50;99.90
46732;DHT22;32477;51.474;5.696;2022-10-16T09:23:25;21.80;99.90
46732;DHT22;32477;51.474;5.696;2022-10-16T09:25:51;22.20;99.90
46732;DHT22;32477;51.474;5.696;2022-10-16T09:28:18;21.80;99.90
46732;DHT22;32477;51.474;5.696;2022-10-16T09:30:45;21.70;99.90
46732;DHT22;32477;51.474;5.696;2022-10-16T09:33:12;22.10;99.90
46732;DHT22;32477;51.474;5.696;2022-10-16T09:35:50;22.10;99.90
46732;DHT22;32477;51.474;5.696;2022-10-16T09:38:30;22.40;99.90
46732;DHT22;32477;51.474;5.696;2022-10-16T09:40:58;22.50;99.90
46732;DHT22;32477;51.474;5.696;2022-10-16T09:45:58;23.50;99.90
46732;DHT22;32477;51.474;5.696;2022-10-16T09:48:28;23.90;99.90
46732;DHT22;32477;51.474;5.696;2022-10-16T09:51:02;23.70;99.90
46732;DHT22;32477;51.474;5.696;2022-10-16T09:53:43;23.50;99.90
46732;DHT22;32477;51.474;5.696;2022-10-16T09:56:11;23.30;99.90
46732;DHT22;32477;51.474;5.696;2022-10-16T09:58:42;23.50;99.90
46732;DHT22;32477;51.474;5.696;2022-10-16T10:01:13;24.20;99.90
46732;DHT22;32477;51.474;5.696;2022-10-16T10:03:42;23.60;99.90
46732;DHT22;32477;51.474;5.696;2022-10-16T10:09:13;22.20;99.90
46732;DHT22;32477;51.474;5.696;2022-10-16T10:11:49;22.40;99.90
46732;DHT22;32477;51.474;5.696;2022-10-16T10:14:21;22.70;99.90
46732;DHT22;32477;51.474;5.696;2022-10-16T10:16:48;21.90;99.90
46732;DHT22;32477;51.474;5.696;2022-10-16T10:19:19;22.70;99.90
46732;DHT22;32477;51.474;5.696;2022-10-16T10:21:45;23.90;99.90
46732;DHT22;32477;51.474;5.696;2022-10-16T10:24:13;24.50;99.90
46732;DHT22;32477;51.474;5.696;2022-10-16T10:26:44;24.50;99.70
46732;DHT22;32477;51.474;5.696;2022-10-16T10:32:13;22.60;99.90
46732;DHT22;32477;51.474;5.696;2022-10-16T10:45:47;25.20;97.70
46732;DHT22;32477;51.474;5.696;2022-10-16T10:48:43;25.20;98.40
46732;DHT22;32477;51.474;5.696;2022-10-16T10:51:22;25.20;97.10
46732;DHT22;32477;51.474;5.696;2022-10-16T10:54:18;24.70;97.90
46732;DHT22;32477;51.474;5.696;2022-10-16T10:56:52;23.40;98.90
46732;DHT22;32477;51.474;5.696;2022-10-16T11:07:19;21.40;99.90
46732;DHT22;32477;51.474;5.696;2022-10-16T11:09:52;21.30;99.90
46732;DHT22;32477;51.474;5.696;2022-10-16T11:12:20;21.10;99.90
46732;DHT22;32477;51.474;5.696;2022-10-16T11:15:03;21.80;99.90
46732;DHT22;32477;51.474;5.696;2022-10-16T11:17:41;21.10;99.90
46732;DHT22;32477;51.474;5.696;2022-10-16T11:20:26;20.20;99.90
46732;DHT22;32477;51.474;5.696;2022-10-16T11:25:30;19.20;99.90
46732;DHT22;32477;51.474;5.696;2022-10-16T11:28:11;20.40;99.90
46732;DHT22;32477;51.474;5.696;2022-10-16T11:30:49;22.50;99.90
46732;DHT22;32477;51.474;5.696;2022-10-16T11:33:45;23.30;99.90
46732;DHT22;32477;51.474;5.696;2022-10-16T11:36:20;22.30;99.90
46732;DHT22;32477;51.474;5.696;2022-10-16T11:41:36;22.50;99.90
46732;DHT22;32477;51.474;5.696;2022-10-16T11:49:47;24.00;99.70
46732;DHT22;32477;51.474;5.696;2022-10-16T11:55:20;25.50;97.70
46732;DHT22;32477;51.474;5.696;2022-10-16T11:57:57;26.80;95.60
46732;DHT22;32477;51.474;5.696;2022-10-16T12:00:28;27.10;95.10
46732;DHT22;32477;51.474;5.696;2022-10-16T12:05:55;27.20;93.20
46732;DHT22;32477;51.474;5.696;2022-10-16T12:08:23;27.00;92.80
46732;DHT22;32477;51.474;5.696;2022-10-16T12:10:50;27.00;92.80
46732;DHT22;32477;51.474;5.696;2022-10-16T12:18:42;27.10;92.60
46732;DHT22;32477;51.474;5.696;2022-10-16T12:21:09;27.00;92.20
46732;DHT22;32477;51.474;5.696;2022-10-16T12:23:50;26.70;92.10
46732;DHT22;32477;51.474;5.696;2022-10-16T12:26:25;26.50;92.10
46732;DHT22;32477;51.474;5.696;2022-10-16T12:28:52;26.30;92.50
46732;DHT22;32477;51.474;5.696;2022-10-16T12:31:18;26.80;92.00
46732;DHT22;32477;51.474;5.696;2022-10-16T12:33:57;26.10;92.30
46732;DHT22;32477;51.474;5.696;2022-10-16T12:36:29;26.30;92.60
46732;DHT22;32477;51.474;5.696;2022-10-16T12:38:55;26.00;92.30
46732;DHT22;32477;51.474;5.696;2022-10-16T12:41:35;25.40;93.60
46732;DHT22;32477;51.474;5.696;2022-10-16T12:44:03;26.00;93.40
46732;DHT22;32477;51.474;5.696;2022-10-16T12:51:42;25.40;93.50
46732;DHT22;32477;51.474;5.696;2022-10-16T12:54:34;25.30;92.90
46732;DHT22;32477;51.474;5.696;2022-10-16T12:59:51;23.20;96.10
46732;DHT22;32477;51.474;5.696;2022-10-16T13:07:38;23.10;98.10
46732;DHT22;32477;51.474;5.696;2022-10-16T13:12:45;22.50;98.60
46732;DHT22;32477;51.474;5.696;2022-10-16T13:15:56;21.90;99.30
46732;DHT22;32477;51.474;5.696;2022-10-16T13:18:33;23.30;97.60
46732;DHT22;32477;51.474;5.696;2022-10-16T13:21:27;24.20;96.40
46732;DHT22;32477;51.474;5.696;2022-10-16T13:26:55;22.60;97.70
46732;DHT22;32477;51.474;5.696;2022-10-16T13:29:22;22.10;98.80
46732;DHT22;32477;51.474;5.696;2022-10-16T13:31:48;22.40;98.20
46732;DHT22;32477;51.474;5.696;2022-10-16T13:34:17;23.20;97.30
46732;DHT22;32477;51.474;5.696;2022-10-16T13:36:46;22.90;97.70
46732;DHT22;32477;51.474;5.696;2022-10-16T13:39:29;22.20;98.50
46732;DHT22;32477;51.474;5.696;2022-10-16T13:42:02;22.00;98.90
46732;DHT22;32477;51.474;5.696;2022-10-16T13:44:33;21.60;99.70
46732;DHT22;32477;51.474;5.696;2022-10-16T13:47:01;21.30;99.90
46732;DHT22;32477;51.474;5.696;2022-10-16T13:49:27;20.90;99.90
46732;DHT22;32477;51.474;5.696;2022-10-16T13:51:58;20.70;99.90
46732;DHT22;32477;51.474;5.696;2022-10-16T13:54:25;20.70;99.90
46732;DHT22;32477;51.474;5.696;2022-10-16T13:56:51;20.80;99.90
46732;DHT22;32477;51.474;5.696;2022-10-16T14:01:53;20.30;99.90
46732;DHT22;32477;51.474;5.696;2022-10-16T14:04:19;20.10;99.90
46732;DHT22;32477;51.474;5.696;2022-10-16T14:06:48;19.90;99.90
46732;DHT22;32477;51.474;5.696;2022-10-16T14:12:01;19.70;99.90
46732;DHT22;32477;51.474;5.696;2022-10-16T14:14:41;19.60;99.90
46732;DHT22;32477;51.474;5.696;2022-10-16T14:17:14;19.50;99.90
46732;DHT22;32477;51.474;5.696;2022-10-16T14:19:40;19.50;99.90
46732;DHT22;32477;51.474;5.696;2022-10-16T14:22:42;19.40;99.90
46732;DHT22;32477;51.474;5.696;2022-10-16T14:25:21;19.20;99.90
46732;DHT22;32477;51.474;5.696;2022-10-16T14:30:58;19.10;99.90
46732;DHT22;32477;51.474;5.696;2022-10-16T14:33:32;19.10;99.90
46732;DHT22;32477;51.474;5.696;2022-10-16T14:36:12;19.10;99.90
46732;DHT22;32477;51.474;5.696;2022-10-16T14:38:40;19.00;99.90
46732;DHT22;32477;51.474;5.696;2022-10-16T14:41:06;19.00;99.90
46732;DHT22;32477;51.474;5.696;2022-10-16T14:43:36;19.00;99.90
46732;DHT22;32477;51.474;5.696;2022-10-16T14:46:05;19.00;99.90
46732;DHT22;32477;51.474;5.696;2022-10-16T14:48:32;19.00;99.90
46732;DHT22;32477;51.474;5.696;2022-10-16T14:50:58;19.10;99.90
46732;DHT22;32477;51.474;5.696;2022-10-16T14:53:23;19.30;99.90
46732;DHT22;32477;51.474;5.696;2022-10-16T14:55:49;19.50;99.90
46732;DHT22;32477;51.474;5.696;2022-10-16T14:58:18;19.60;99.90
46732;DHT22;32477;51.474;5.696;2022-10-16T15:00:44;19.70;99.90
46732;DHT22;32477;51.474;5.696;2022-10-16T15:03:10;19.60;99.90
46732;DHT22;32477;51.474;5.696;2022-10-16T15:05:36;19.50;99.90
46732;DHT22;32477;51.474;5.696;2022-10-16T15:08:02;19.40;99.90
46732;DHT22;32477;51.474;5.696;2022-10-16T15:10:30;19.30;99.90
46732;DHT22;32477;51.474;5.696;2022-10-16T15:12:56;19.30;99.90
46732;DHT22;32477;51.474;5.696;2022-10-16T15:15:38;19.20;99.90
46732;DHT22;32477;51.474;5.696;2022-10-16T15:18:07;19.10;99.90
46732;DHT22;32477;51.474;5.696;2022-10-16T15:20:34;19.00;99.90
46732;DHT22;32477;51.474;5.696;2022-10-16T15:23:14;18.90;99.90
46732;DHT22;32477;51.474;5.696;2022-10-16T15:25:43;18.80;99.90
46732;DHT22;32477;51.474;5.696;2022-10-16T15:28:10;18.70;99.90
46732;DHT22;32477;51.474;5.696;2022-10-16T15:30:36;18.60;99.90
46732;DHT22;32477;51.474;5.696;2022-10-16T15:33:04;18.50;99.90
46732;DHT22;32477;51.474;5.696;2022-10-16T15:35:30;18.40;99.90
46732;DHT22;32477;51.474;5.696;2022-10-16T15:37:57;18.40;99.90
46732;DHT22;32477;51.474;5.696;2022-10-16T15:40:23;18.30;99.90
46732;DHT22;32477;51.474;5.696;2022-10-16T15:42:49;18.30;99.90
46732;DHT22;32477;51.474;5.696;2022-10-16T15:45:15;18.30;99.90
46732;DHT22;32477;51.474;5.696;2022-10-16T15:47:42;18.20;99.90
46732;DHT22;32477;51.474;5.696;2022-10-16T15:50:11;18.20;99.90
46732;DHT22;32477;51.474;5.696;2022-10-16T15:52:37;18.10;99.90
46732;DHT22;32477;51.474;5.696;2022-10-16T15:55:08;18.00;99.90
46732;DHT22;32477;51.474;5.696;2022-10-16T15:57:34;17.90;99.90
46732;DHT22;32477;51.474;5.696;2022-10-16T15:59:59;17.90;99.90
46732;DHT22;32477;51.474;5.696;2022-10-16T16:02:25;17.70;99.90
46732;DHT22;32477;51.474;5.696;2022-10-16T16:04:50;17.70;99.90
46732;DHT22;32477;51.474;5.696;2022-10-16T16:07:17;17.60;99.90
46732;DHT22;32477;51.474;5.696;2022-10-16T16:09:43;17.50;99.90
46732;DHT22;32477;51.474;5.696;2022-10-16T16:12:10;17.50;99.90
46732;DHT22;32477;51.474;5.696;2022-10-16T16:14:35;17.30;99.90
46732;DHT22;32477;51.474;5.696;2022-10-16T16:17:01;17.20;99.90
46732;DHT22;32477;51.474;5.696;2022-10-16T16:19:27;17.00;99.90
46732;DHT22;32477;51.474;5.696;2022-10-16T16:21:53;16.90;99.90
46732;DHT22;32477;51.474;5.696;2022-10-16T16:24:18;16.70;99.90
46732;DHT22;32477;51.474;5.696;2022-10-16T16:26:44;16.70;99.90
46732;DHT22;32477;51.474;5.696;2022-10-16T16:29:14;16.60;99.90
46732;DHT22;32477;51.474;5.696;2022-10-16T16:31:41;16.50;99.90
46732;DHT22;32477;51.474;5.696;2022-10-16T16:34:07;16.40;99.90
46732;DHT22;32477;51.474;5.696;2022-10-16T16:36:34;16.30;99.90
46732;DHT22;32477;51.474;5.696;2022-10-16T16:39:00;16.10;99.90
46732;DHT22;32477;51.474;5.696;2022-10-16T16:41:28;16.10;99.90
46732;DHT22;32477;51.474;5.696;2022-10-16T16:43:54;16.10;99.90
46732;DHT22;32477;51.474;5.696;2022-10-16T16:46:20;16.10;99.90
46732;DHT22;32477;51.474;5.696;2022-10-16T16:48:47;16.00;99.90
46732;DHT22;32477;51.474;5.696;2022-10-16T16:51:16;16.00;99.90
46732;DHT22;32477;51.474;5.696;2022-10-16T16:53:46;15.90;99.90
46732;DHT22;32477;51.474;5.696;2022-10-16T16:56:13;15.90;99.90
46732;DHT22;32477;51.474;5.696;2022-10-16T16:58:39;15.90;99.90
46732;DHT22;32477;51.474;5.696;2022-10-16T17:01:09;15.80;99.90
46732;DHT22;32477;51.474;5.696;2022-10-16T17:03:35;15.80;99.90
46732;DHT22;32477;51.474;5.696;2022-10-16T17:06:04;15.70;99.90
46732;DHT22;32477;51.474;5.696;2022-10-16T17:08:30;15.80;99.90
46732;DHT22;32477;51.474;5.696;2022-10-16T17:10:56;15.70;99.90
46732;DHT22;32477;51.474;5.696;2022-10-16T17:13:27;15.70;99.90
46732;DHT22;32477;51.474;5.696;2022-10-16T17:15:54;15.70;99.90
46732;DHT22;32477;51.474;5.696;2022-10-16T17:18:21;15.70;99.90
46732;DHT22;32477;51.474;5.696;2022-10-16T17:20:48;15.70;99.90
46732;DHT22;32477;51.474;5.696;2022-10-16T17:23:14;15.70;99.90
46732;DHT22;32477;51.474;5.696;2022-10-16T17:25:41;15.60;99.90
46732;DHT22;32477;51.474;5.696;2022-10-16T17:28:08;15.60;99.90